Time,TemperatureF,DewpointF,PressureIn,WindDirection,WindDirectionDegrees,WindSpeedMPH,WindSpeedGustMPH,Humidity,HourlyPrecipIn,Conditions,Clouds,dailyrainin,SolarRadiationWatts/m^2,SoftwareType,DateUTC
2013-06-23 00:01:00,72.7,71.8,30.09,East,83,0.0,0.0,97,0.00,,,0.35,0.0,meteohub,2013-06-23 04:01:00,
2013-06-23 00:02:00,72.7,71.8,30.09,East,83,0.0,0.0,97,0.00,,,0.35,0.0,meteohub,2013-06-23 04:02:00,
2013-06-23 00:07:00,72.7,71.8,30.10,East,83,0.0,0.0,97,0.00,,,0.00,0.0,meteohub,2013-06-23 04:07:00,
2013-06-23 00:12:00,72.7,71.8,30.10,East,83,0.0,0.0,97,0.00,,,0.00,0.0,meteohub,2013-06-23 04:12:00,
2013-06-23 00:17:00,72.9,72.0,30.10,East,83,0.0,0.0,97,0.00,,,0.00,0.0,meteohub,2013-06-23 04:17:00,
2013-06-23 00:22:00,72.7,71.8,30.10,East,83,0.0,0.0,97,0.00,,,0.00,0.0,meteohub,2013-06-23 04:22:00,
2013-06-23 00:27:00,72.3,71.4,30.10,East,83,0.0,0.0,97,0.00,,,0.00,0.0,meteohub,2013-06-23 04:27:00,
2013-06-23 00:32:00,72.3,71.4,30.10,East,83,0.0,0.0,97,0.00,,,0.00,0.0,meteohub,2013-06-23 04:32:00,
2013-06-23 00:37:00,72.1,71.2,30.10,East,83,0.0,0.0,97,0.00,,,0.00,0.0,meteohub,2013-06-23 04:37:00,
2013-06-23 00:42:00,72.1,71.2,30.10,East,83,0.0,0.0,97,0.00,,,0.00,0.0,meteohub,2013-06-23 04:42:00,
2013-06-23 00:47:00,72.1,71.2,30.10,East,83,0.0,0.0,97,0.00,,,0.00,0.0,meteohub,2013-06-23 04:47:00,
2013-06-23 00:52:00,72.0,71.1,30.09,East,83,0.0,0.0,97,0.00,,,0.00,0.0,meteohub,2013-06-23 04:52:00,
2013-06-23 00:57:00,72.0,71.1,30.09,East,83,0.0,0.0,97,0.00,,,0.00,0.0,meteohub,2013-06-23 04:57:00,
2013-06-23 01:02:00,72.0,71.1,30.09,East,83,0.0,0.0,97,0.00,,,0.00,0.0,meteohub,2013-06-23 05:02:00,
2013-06-23 01:07:00,72.1,71.2,30.09,East,83,0.0,0.0,97,0.00,,,0.00,0.0,meteohub,2013-06-23 05:07:00,
2013-06-23 01:12:00,72.0,71.1,30.09,East,83,0.0,0.0,97,0.00,,,0.00,0.0,meteohub,2013-06-23 05:12:00,
2013-06-23 01:17:00,72.0,71.4,30.09,East,83,0.0,0.0,98,0.00,,,0.00,0.0,meteohub,2013-06-23 05:17:00,
2013-06-23 01:22:00,72.0,71.4,30.09,East,83,0.0,0.0,98,0.00,,,0.00,0.0,meteohub,2013-06-23 05:22:00,
2013-06-23 01:27:00,71.8,71.2,30.09,East,83,0.0,0.0,98,0.00,,,0.00,0.0,meteohub,2013-06-23 05:27:00,
2013-06-23 01:32:00,71.8,71.2,30.09,East,83,0.0,0.0,98,0.00,,,0.00,0.0,meteohub,2013-06-23 05:32:00,
2013-06-23 01:37:00,71.8,70.9,30.09,East,83,0.0,0.0,97,0.00,,,0.00,0.0,meteohub,2013-06-23 05:37:00,
2013-06-23 01:42:00,71.6,70.7,30.09,East,83,0.0,0.0,97,0.00,,,0.00,0.0,meteohub,2013-06-23 05:42:00,
2013-06-23 01:47:00,71.6,71.1,30.09,East,83,0.0,0.0,98,0.00,,,0.00,0.0,meteohub,2013-06-23 05:47:00,
2013-06-23 01:52:00,71.6,71.1,30.09,East,83,0.0,0.0,98,0.00,,,0.00,0.0,meteohub,2013-06-23 05:52:00,
2013-06-23 01:57:00,71.8,71.2,30.09,East,83,0.0,0.0,98,0.00,,,0.00,0.0,meteohub,2013-06-23 05:57:00,
2013-06-23 02:01:00,71.8,71.2,30.08,East,83,0.0,0.0,98,0.00,,,0.00,0.0,meteohub,2013-06-23 06:01:00,
2013-06-23 02:06:00,71.4,70.9,30.09,East,83,0.0,0.0,98,0.00,,,0.00,0.0,meteohub,2013-06-23 06:06:00,
2013-06-23 02:11:00,71.4,70.9,30.08,East,83,0.0,0.0,98,0.00,,,0.00,0.0,meteohub,2013-06-23 06:11:00,
2013-06-23 02:16:00,71.2,70.7,30.09,East,83,0.0,0.0,98,0.00,,,0.00,0.0,meteohub,2013-06-23 06:16:00,
2013-06-23 02:21:00,71.2,70.7,30.08,East,83,0.0,0.0,98,0.00,,,0.00,0.0,meteohub,2013-06-23 06:21:00,
2013-06-23 02:26:00,71.2,70.7,30.08,East,83,0.0,0.0,98,0.00,,,0.00,0.0,meteohub,2013-06-23 06:26:00,
2013-06-23 02:31:00,71.1,70.5,30.08,East,83,0.0,0.0,98,0.00,,,0.00,0.0,meteohub,2013-06-23 06:31:00,
2013-06-23 02:36:00,71.1,70.5,30.07,East,83,0.0,0.0,98,0.00,,,0.00,0.0,meteohub,2013-06-23 06:36:00,
2013-06-23 02:41:00,71.1,70.5,30.07,East,83,0.0,0.0,98,0.00,,,0.00,0.0,meteohub,2013-06-23 06:41:00,
2013-06-23 02:46:00,70.9,70.3,30.07,East,83,0.0,0.0,98,0.00,,,0.00,0.0,meteohub,2013-06-23 06:46:00,
2013-06-23 02:51:00,70.9,70.3,30.07,East,83,0.0,0.0,98,0.00,,,0.00,0.0,meteohub,2013-06-23 06:51:00,
2013-06-23 02:56:00,71.1,70.5,30.07,East,83,0.0,0.0,98,0.00,,,0.00,0.0,meteohub,2013-06-23 06:56:00,
2013-06-23 03:01:00,71.1,70.5,30.07,East,83,0.0,0.0,98,0.00,,,0.00,0.0,meteohub,2013-06-23 07:01:00,
2013-06-23 03:06:00,71.1,70.5,30.07,East,83,0.0,0.0,98,0.00,,,0.00,0.0,meteohub,2013-06-23 07:06:00,
2013-06-23 03:11:00,71.1,70.5,30.07,East,83,0.0,0.0,98,0.00,,,0.00,0.0,meteohub,2013-06-23 07:11:00,
2013-06-23 03:16:00,70.9,70.3,30.07,East,83,0.0,0.0,98,0.00,,,0.00,0.0,meteohub,2013-06-23 07:16:00,
2013-06-23 03:21:00,70.9,70.3,30.07,East,83,0.0,0.0,98,0.00,,,0.00,0.0,meteohub,2013-06-23 07:21:00,
2013-06-23 03:26:00,70.7,70.2,30.07,East,83,0.0,0.0,98,0.00,,,0.00,0.0,meteohub,2013-06-23 07:26:00,
2013-06-23 03:31:00,70.7,70.2,30.07,East,83,0.0,0.0,98,0.00,,,0.00,0.0,meteohub,2013-06-23 07:31:00,
2013-06-23 03:36:00,70.7,70.2,30.07,East,83,0.0,0.0,98,0.00,,,0.00,0.0,meteohub,2013-06-23 07:36:00,
2013-06-23 03:41:00,70.7,70.2,30.07,East,83,0.0,0.0,98,0.00,,,0.00,0.0,meteohub,2013-06-23 07:41:00,
2013-06-23 03:46:00,70.5,70.0,30.07,East,83,0.0,0.0,98,0.00,,,0.00,0.0,meteohub,2013-06-23 07:46:00,
2013-06-23 03:51:00,70.5,70.0,30.07,East,83,0.0,0.0,98,0.00,,,0.00,0.0,meteohub,2013-06-23 07:51:00,
2013-06-23 03:56:00,70.5,70.0,30.07,East,83,0.0,0.0,98,0.00,,,0.00,0.0,meteohub,2013-06-23 07:56:00,
2013-06-23 04:01:00,70.5,70.0,30.07,East,83,0.0,0.0,98,0.00,,,0.00,0.0,meteohub,2013-06-23 08:01:00,
2013-06-23 04:06:00,70.3,69.8,30.07,East,83,0.0,0.0,98,0.00,,,0.00,0.0,meteohub,2013-06-23 08:06:00,
2013-06-23 04:12:00,70.5,70.0,30.07,East,83,0.0,0.0,98,0.00,,,0.00,0.0,meteohub,2013-06-23 08:12:00,
2013-06-23 04:17:00,70.5,70.0,30.07,East,83,0.0,0.0,98,0.00,,,0.00,0.0,meteohub,2013-06-23 08:17:00,
2013-06-23 04:22:00,70.7,70.2,30.07,East,83,0.0,0.0,98,0.00,,,0.00,0.0,meteohub,2013-06-23 08:22:00,
2013-06-23 04:27:00,70.7,70.2,30.07,East,83,0.0,0.0,98,0.00,,,0.00,0.0,meteohub,2013-06-23 08:27:00,
2013-06-23 04:32:00,70.7,70.2,30.07,East,83,0.0,0.0,98,0.00,,,0.00,0.0,meteohub,2013-06-23 08:32:00,
2013-06-23 04:36:00,70.5,70.0,30.07,East,83,0.0,0.0,98,0.00,,,0.00,0.0,meteohub,2013-06-23 08:36:00,
2013-06-23 04:42:00,70.5,70.0,30.07,East,83,0.0,0.0,98,0.00,,,0.00,0.0,meteohub,2013-06-23 08:42:00,
2013-06-23 04:47:00,70.5,70.0,30.07,East,83,0.0,0.0,98,0.00,,,0.00,0.0,meteohub,2013-06-23 08:47:00,
2013-06-23 04:52:00,70.7,70.2,30.07,East,83,0.0,0.0,98,0.00,,,0.00,0.0,meteohub,2013-06-23 08:52:00,
2013-06-23 04:57:00,70.5,70.0,30.07,East,83,0.0,0.0,98,0.00,,,0.00,0.0,meteohub,2013-06-23 08:57:00,
2013-06-23 05:02:00,70.3,69.8,30.07,East,83,0.0,0.0,98,0.00,,,0.00,0.0,meteohub,2013-06-23 09:02:00,
2013-06-23 05:07:00,70.3,69.8,30.07,East,83,0.0,0.0,98,0.00,,,0.00,0.0,meteohub,2013-06-23 09:07:00,
2013-06-23 05:12:00,70.5,70.0,30.08,East,83,0.0,0.0,98,0.00,,,0.00,0.0,meteohub,2013-06-23 09:12:00,
2013-06-23 05:17:00,70.7,70.2,30.08,East,83,0.0,0.0,98,0.00,,,0.00,0.0,meteohub,2013-06-23 09:17:00,
2013-06-23 05:22:00,70.5,70.0,30.07,East,83,0.0,0.0,98,0.00,,,0.00,0.0,meteohub,2013-06-23 09:22:00,
2013-06-23 05:27:00,70.5,70.0,30.08,East,83,0.0,0.0,98,0.00,,,0.00,0.0,meteohub,2013-06-23 09:27:00,
2013-06-23 05:32:00,70.3,69.8,30.08,East,83,0.0,0.0,98,0.00,,,0.00,0.0,meteohub,2013-06-23 09:32:00,
2013-06-23 05:37:00,70.2,69.6,30.08,East,83,0.0,0.0,98,0.00,,,0.00,0.0,meteohub,2013-06-23 09:37:00,
2013-06-23 05:42:00,70.2,69.6,30.08,East,83,0.0,0.0,98,0.00,,,0.00,0.0,meteohub,2013-06-23 09:42:00,
2013-06-23 05:47:00,70.2,69.6,30.08,East,83,0.0,0.0,98,0.00,,,0.00,0.0,meteohub,2013-06-23 09:47:00,
2013-06-23 05:52:00,70.0,69.4,30.08,East,83,0.0,0.0,98,0.00,,,0.00,0.0,meteohub,2013-06-23 09:52:00,
2013-06-23 05:57:00,70.0,69.4,30.08,East,83,0.0,0.0,98,0.00,,,0.00,0.0,meteohub,2013-06-23 09:57:00,
2013-06-23 06:02:00,70.0,69.4,30.08,East,83,0.0,0.0,98,0.00,,,0.00,0.0,meteohub,2013-06-23 10:02:00,
2013-06-23 06:07:00,70.0,69.4,30.08,East,83,0.0,0.0,98,0.00,,,0.00,0.0,meteohub,2013-06-23 10:07:00,
2013-06-23 06:12:00,70.0,69.4,30.08,East,83,0.0,0.0,98,0.00,,,0.00,0.0,meteohub,2013-06-23 10:12:00,
2013-06-23 06:17:00,70.0,69.4,30.08,East,83,0.0,0.0,98,0.00,,,0.00,0.0,meteohub,2013-06-23 10:17:00,
2013-06-23 06:22:00,70.2,69.6,30.08,East,83,0.0,0.0,98,0.00,,,0.00,0.0,meteohub,2013-06-23 10:22:00,
2013-06-23 06:27:00,70.2,69.6,30.09,East,83,0.0,0.0,98,0.00,,,0.00,0.0,meteohub,2013-06-23 10:27:00,
2013-06-23 06:32:00,70.2,69.6,30.09,East,83,0.0,0.0,98,0.00,,,0.00,7.0,meteohub,2013-06-23 10:32:00,
2013-06-23 06:37:00,70.2,69.6,30.09,East,83,0.0,0.0,98,0.00,,,0.00,12.0,meteohub,2013-06-23 10:37:00,
2013-06-23 06:42:00,70.2,69.6,30.09,East,83,0.0,0.0,98,0.00,,,0.00,18.0,meteohub,2013-06-23 10:42:00,
2013-06-23 06:47:00,70.2,69.6,30.09,East,83,0.0,0.0,98,0.00,,,0.00,23.0,meteohub,2013-06-23 10:47:00,
2013-06-23 06:52:00,70.2,69.6,30.09,East,83,0.0,0.0,98,0.00,,,0.00,30.0,meteohub,2013-06-23 10:52:00,
2013-06-23 06:57:00,70.3,69.8,30.09,East,83,0.0,0.0,98,0.00,,,0.00,40.0,meteohub,2013-06-23 10:57:00,
2013-06-23 07:02:00,70.5,70.0,30.09,East,83,0.0,0.0,98,0.00,,,0.00,49.0,meteohub,2013-06-23 11:02:00,
2013-06-23 07:07:00,71.1,70.5,30.09,East,83,0.0,0.0,98,0.00,,,0.00,65.0,meteohub,2013-06-23 11:07:00,
2013-06-23 07:12:00,71.4,70.9,30.09,East,83,0.0,0.0,98,0.00,,,0.00,79.0,meteohub,2013-06-23 11:12:00,
2013-06-23 07:17:00,71.8,71.2,30.09,East,83,0.0,0.0,98,0.00,,,0.00,72.0,meteohub,2013-06-23 11:17:00,
2013-06-23 07:22:00,72.0,71.6,30.09,East,83,0.0,0.0,99,0.00,,,0.00,62.0,meteohub,2013-06-23 11:22:00,
2013-06-23 07:27:00,72.1,71.6,30.09,East,83,0.0,0.0,98,0.00,,,0.00,69.0,meteohub,2013-06-23 11:27:00,
2013-06-23 07:32:00,72.3,71.8,30.10,East,83,0.0,0.0,98,0.00,,,0.00,107.0,meteohub,2013-06-23 11:32:00,
2013-06-23 07:37:00,72.9,72.3,30.10,East,83,0.0,0.0,98,0.00,,,0.00,149.0,meteohub,2013-06-23 11:37:00,
2013-06-23 07:42:00,73.6,73.0,30.10,East,83,0.0,0.0,98,0.00,,,0.00,105.0,meteohub,2013-06-23 11:42:00,
2013-06-23 07:47:00,74.1,73.8,30.10,East,83,0.0,0.0,99,0.00,,,0.00,207.0,meteohub,2013-06-23 11:47:00,
2013-06-23 07:52:00,74.7,74.3,30.10,East,83,0.0,0.0,99,0.00,,,0.00,229.0,meteohub,2013-06-23 11:52:00,
2013-06-23 07:57:00,75.0,74.7,30.10,East,83,0.0,0.0,99,0.00,,,0.00,241.0,meteohub,2013-06-23 11:57:00,
2013-06-23 08:02:00,75.4,75.0,30.10,East,83,0.0,0.0,99,0.00,,,0.00,163.0,meteohub,2013-06-23 12:02:00,
2013-06-23 08:07:00,75.6,75.2,30.10,East,83,0.0,0.0,99,0.00,,,0.00,176.0,meteohub,2013-06-23 12:07:00,
2013-06-23 08:12:00,75.9,75.4,30.10,East,83,0.0,0.0,98,0.00,,,0.00,179.0,meteohub,2013-06-23 12:12:00,
2013-06-23 08:17:00,76.5,76.1,30.10,East,83,0.0,0.0,99,0.01,,,0.01,248.0,meteohub,2013-06-23 12:17:00,
2013-06-23 08:22:00,77.2,76.6,30.10,East,83,0.0,0.0,98,0.01,,,0.01,287.0,meteohub,2013-06-23 12:22:00,
2013-06-23 08:27:00,77.9,77.4,30.10,East,83,0.0,0.0,98,0.01,,,0.01,271.0,meteohub,2013-06-23 12:27:00,
2013-06-23 08:32:00,78.6,77.7,30.10,East,83,0.0,0.0,97,0.01,,,0.01,381.0,meteohub,2013-06-23 12:32:00,
2013-06-23 08:37:00,79.3,77.7,30.11,East,83,0.0,0.0,95,0.01,,,0.01,297.0,meteohub,2013-06-23 12:37:00,
2013-06-23 08:42:00,80.1,77.9,30.11,East,83,0.0,0.0,93,0.01,,,0.01,374.0,meteohub,2013-06-23 12:42:00,
2013-06-23 08:47:00,80.2,77.4,30.11,East,83,0.0,0.0,91,0.01,,,0.01,174.0,meteohub,2013-06-23 12:47:00,
2013-06-23 08:52:00,80.4,77.2,30.12,East,83,0.0,0.0,90,0.01,,,0.01,176.0,meteohub,2013-06-23 12:52:00,
2013-06-23 08:57:00,80.6,77.4,30.12,East,83,0.0,0.0,90,0.01,,,0.01,434.0,meteohub,2013-06-23 12:57:00,
2013-06-23 09:02:00,81.1,77.5,30.12,East,83,0.0,0.0,89,0.01,,,0.01,313.0,meteohub,2013-06-23 13:02:00,
2013-06-23 09:07:00,81.3,77.4,30.12,East,83,0.0,1.0,88,0.01,,,0.01,408.0,meteohub,2013-06-23 13:07:00,
2013-06-23 09:12:00,81.7,77.4,30.12,East,83,0.0,1.0,87,0.01,,,0.01,258.0,meteohub,2013-06-23 13:12:00,
2013-06-23 09:17:00,81.9,77.2,30.12,East,83,0.0,1.0,86,0.00,,,0.01,151.0,meteohub,2013-06-23 13:17:00,
2013-06-23 09:22:00,81.7,76.6,30.11,East,83,0.0,1.0,85,0.00,,,0.01,151.0,meteohub,2013-06-23 13:22:00,
2013-06-23 09:27:00,81.7,77.0,30.12,East,83,0.0,0.0,86,0.00,,,0.01,183.0,meteohub,2013-06-23 13:27:00,
2013-06-23 09:32:00,82.0,77.0,30.12,East,83,0.0,0.0,85,0.00,,,0.01,329.0,meteohub,2013-06-23 13:32:00,
2013-06-23 09:37:00,82.4,76.6,30.12,East,83,0.0,0.0,83,0.00,,,0.01,427.0,meteohub,2013-06-23 13:37:00,
2013-06-23 09:42:00,82.6,76.5,30.12,East,83,0.0,1.0,82,0.00,,,0.01,531.0,meteohub,2013-06-23 13:42:00,
2013-06-23 09:47:00,82.8,76.3,30.12,East,83,0.0,1.0,81,0.00,,,0.01,524.0,meteohub,2013-06-23 13:47:00,
2013-06-23 09:52:00,82.9,76.5,30.12,East,83,0.0,1.0,81,0.00,,,0.01,234.0,meteohub,2013-06-23 13:52:00,
2013-06-23 09:57:00,82.4,76.3,30.12,NNE,33,0.0,1.0,82,0.00,,,0.01,211.0,meteohub,2013-06-23 13:57:00,
2013-06-23 10:02:00,82.2,76.5,30.12,NNE,33,0.0,1.0,83,0.00,,,0.01,373.0,meteohub,2013-06-23 14:02:00,
2013-06-23 10:06:00,82.0,75.9,30.12,NE,44,0.0,1.0,82,0.00,,,0.01,292.0,meteohub,2013-06-23 14:06:00,
2013-06-23 10:12:00,82.2,76.5,30.12,NW,314,0.0,1.0,83,0.00,,,0.01,292.0,meteohub,2013-06-23 14:12:00,
2013-06-23 10:17:00,82.4,77.0,30.12,NNE,25,1.0,4.0,84,0.00,,,0.01,232.0,meteohub,2013-06-23 14:17:00,
2013-06-23 10:22:00,82.0,76.6,30.12,NNE,32,0.0,4.0,84,0.00,,,0.01,246.0,meteohub,2013-06-23 14:22:00,
2013-06-23 10:27:00,81.9,77.2,30.12,NNE,32,0.0,4.0,86,0.00,,,0.01,373.0,meteohub,2013-06-23 14:27:00,
2013-06-23 10:32:00,82.8,77.4,30.12,NE,35,0.0,4.0,84,0.00,,,0.01,891.0,meteohub,2013-06-23 14:32:00,
2013-06-23 10:37:00,83.7,76.8,30.13,NE,39,0.0,2.0,80,0.00,,,0.01,867.0,meteohub,2013-06-23 14:37:00,
2013-06-23 10:42:00,83.8,76.6,30.13,NE,39,0.0,2.0,79,0.00,,,0.01,146.0,meteohub,2013-06-23 14:42:00,
2013-06-23 10:47:00,83.5,76.3,30.13,NE,38,0.0,2.0,79,0.00,,,0.01,158.0,meteohub,2013-06-23 14:47:00,
2013-06-23 10:52:00,82.8,76.3,30.13,NE,38,0.0,1.0,81,0.00,,,0.01,156.0,meteohub,2013-06-23 14:52:00,
2013-06-23 10:57:00,82.4,75.9,30.13,NE,39,0.0,1.0,81,0.00,,,0.01,200.0,meteohub,2013-06-23 14:57:00,
2013-06-23 11:02:00,82.4,75.9,30.13,NE,38,0.0,1.0,81,0.00,,,0.01,234.0,meteohub,2013-06-23 15:02:00,
2013-06-23 11:07:00,82.8,76.3,30.13,NE,39,0.0,0.0,81,0.00,,,0.01,318.0,meteohub,2013-06-23 15:07:00,
2013-06-23 11:12:00,83.5,76.3,30.13,NE,38,0.0,0.0,79,0.00,,,0.01,230.0,meteohub,2013-06-23 15:12:00,
2013-06-23 11:17:00,83.8,75.9,30.14,NE,39,0.0,0.0,77,0.00,,,0.01,271.0,meteohub,2013-06-23 15:17:00,
2013-06-23 11:22:00,84.0,76.8,30.14,NE,50,0.0,1.0,79,0.00,,,0.01,283.0,meteohub,2013-06-23 15:22:00,
2013-06-23 11:27:00,83.7,77.9,30.14,NE,50,0.0,1.0,83,0.00,,,0.01,225.0,meteohub,2013-06-23 15:27:00,
2013-06-23 11:32:00,82.9,77.5,30.14,NE,50,0.0,1.0,84,0.00,,,0.01,229.0,meteohub,2013-06-23 15:32:00,
2013-06-23 11:37:00,80.6,73.0,30.14,East,99,0.0,2.0,78,0.06,,,0.07,202.0,meteohub,2013-06-23 15:37:00,
2013-06-23 11:47:00,78.4,74.7,30.14,East,99,0.0,2.0,88,0.07,,,0.08,105.0,meteohub,2013-06-23 15:47:00,
2013-06-23 11:52:00,78.1,74.8,30.14,East,99,0.0,1.0,90,0.07,,,0.08,114.0,meteohub,2013-06-23 15:52:00,
2013-06-23 11:57:00,77.5,74.3,30.14,East,99,0.0,0.0,90,0.07,,,0.08,104.0,meteohub,2013-06-23 15:57:00,
2013-06-23 12:02:00,77.2,74.7,30.14,NNE,30,3.0,3.0,92,0.07,,,0.08,90.0,meteohub,2013-06-23 16:02:00,
2013-06-23 12:07:00,77.4,74.8,30.14,ENE,57,3.0,6.0,92,0.07,,,0.08,90.0,meteohub,2013-06-23 16:07:00,
2013-06-23 12:12:00,77.4,74.8,30.14,NE,36,0.0,6.0,92,0.07,,,0.08,91.0,meteohub,2013-06-23 16:12:00,
2013-06-23 12:17:00,77.4,74.8,30.14,NE,36,0.0,6.0,92,0.07,,,0.08,97.0,meteohub,2013-06-23 16:17:00,
2013-06-23 12:22:00,77.2,74.7,30.14,NNE,32,3.0,5.0,92,0.09,,,0.08,135.0,meteohub,2013-06-23 16:22:00,
2013-06-23 12:27:00,76.5,73.9,30.14,NE,52,1.0,6.0,92,0.11,,,0.12,232.0,meteohub,2013-06-23 16:27:00,
2013-06-23 12:32:00,76.5,73.9,30.14,NE,34,0.0,8.0,92,0.09,,,0.12,339.0,meteohub,2013-06-23 16:32:00,
2013-06-23 12:37:00,76.6,73.8,30.14,NE,46,0.0,8.0,91,0.05,,,0.12,798.0,meteohub,2013-06-23 16:37:00,
2013-06-23 12:42:00,76.8,73.6,30.14,NE,46,0.0,5.0,90,0.04,,,0.12,420.0,meteohub,2013-06-23 16:42:00,
2013-06-23 12:47:00,77.5,74.3,30.14,NE,46,3.0,4.0,90,0.04,,,0.12,424.0,meteohub,2013-06-23 16:47:00,
2013-06-23 12:52:00,78.1,74.5,30.13,NNE,22,0.0,4.0,89,0.04,,,0.12,1113.0,meteohub,2013-06-23 16:52:00,
2013-06-23 12:57:00,79.0,75.4,30.13,NNE,24,0.0,6.0,89,0.04,,,0.12,1165.0,meteohub,2013-06-23 16:57:00,
2013-06-23 13:02:00,79.9,75.7,30.12,NNE,33,1.0,6.0,87,0.04,,,0.12,341.0,meteohub,2013-06-23 17:02:00,
2013-06-23 13:07:00,80.2,76.1,30.12,NE,37,1.0,6.0,87,0.04,,,0.12,346.0,meteohub,2013-06-23 17:07:00,
2013-06-23 13:12:00,81.0,76.6,30.13,NE,37,2.0,4.0,87,0.04,,,0.12,410.0,meteohub,2013-06-23 17:12:00,
2013-06-23 13:17:00,81.5,76.3,30.12,NE,37,0.0,4.0,84,0.04,,,0.12,260.0,meteohub,2013-06-23 17:17:00,
2013-06-23 13:22:00,82.0,76.6,30.12,NE,37,0.0,4.0,84,0.02,,,0.12,911.0,meteohub,2013-06-23 17:22:00,
2013-06-23 13:27:00,82.6,76.8,30.12,NE,40,0.0,4.0,83,0.00,,,0.12,253.0,meteohub,2013-06-23 17:27:00,
2013-06-23 13:33:00,82.8,77.4,30.12,NE,43,0.0,2.0,84,0.00,,,0.12,269.0,meteohub,2013-06-23 17:33:00,
2013-06-23 13:38:00,82.8,78.1,30.12,NE,42,0.0,1.0,86,0.00,,,0.12,230.0,meteohub,2013-06-23 17:38:00,
2013-06-23 13:43:00,82.2,77.9,30.12,NE,44,0.0,1.0,87,0.00,,,0.12,171.0,meteohub,2013-06-23 17:43:00,
2013-06-23 13:48:00,81.5,77.5,30.12,NE,44,0.0,1.0,88,0.01,,,0.13,171.0,meteohub,2013-06-23 17:48:00,
2013-06-23 13:53:00,81.0,77.4,30.12,NE,44,0.0,1.0,89,0.02,,,0.14,174.0,meteohub,2013-06-23 17:53:00,
2013-06-23 13:58:00,81.0,77.7,30.12,NE,44,0.0,1.0,90,0.02,,,0.14,156.0,meteohub,2013-06-23 17:58:00,
2013-06-23 14:03:00,80.4,77.2,30.12,NE,44,0.0,1.0,90,0.02,,,0.14,163.0,meteohub,2013-06-23 18:03:00,
2013-06-23 14:08:00,80.1,76.8,30.11,NE,48,0.0,3.0,90,0.02,,,0.14,206.0,meteohub,2013-06-23 18:08:00,
2013-06-23 14:13:00,80.1,77.5,30.11,NE,48,0.0,4.0,92,0.02,,,0.14,237.0,meteohub,2013-06-23 18:13:00,
2013-06-23 14:18:00,80.1,77.2,30.11,NE,48,0.0,4.0,91,0.03,,,0.15,345.0,meteohub,2013-06-23 18:18:00,
2013-06-23 14:23:00,80.2,77.0,30.11,NE,48,0.0,4.0,90,0.03,,,0.15,1081.0,meteohub,2013-06-23 18:23:00,
2013-06-23 14:28:00,80.4,76.1,30.10,NE,48,0.0,1.0,87,0.03,,,0.15,1004.0,meteohub,2013-06-23 18:28:00,
2013-06-23 14:33:00,81.1,76.3,30.10,NE,48,0.0,1.0,85,0.03,,,0.15,520.0,meteohub,2013-06-23 18:33:00,
2013-06-23 14:38:00,81.9,76.1,30.10,NE,48,0.0,1.0,83,0.03,,,0.15,418.0,meteohub,2013-06-23 18:38:00,
2013-06-23 14:43:00,82.0,75.6,30.10,NE,48,0.0,1.0,81,0.03,,,0.15,1009.0,meteohub,2013-06-23 18:43:00,
2013-06-23 14:48:00,82.8,76.6,30.10,ESE,114,0.0,1.0,82,0.02,,,0.15,1042.0,meteohub,2013-06-23 18:48:00,
2013-06-23 14:53:00,82.8,77.0,30.10,NE,51,0.0,-999.0,82,-99.99,,,0.15,1037,weatherlink.com 1.10,2013-06-23 18:53:00,
2013-06-23 14:58:00,82.6,75.7,30.09,NE,51,0.0,4.0,80,0.01,,,0.15,930.0,meteohub,2013-06-23 18:58:00,
2013-06-23 15:03:00,82.9,76.5,30.09,NE,51,0.0,4.0,81,0.01,,,0.15,1076.0,meteohub,2013-06-23 19:03:00,
2013-06-23 15:08:00,83.5,77.4,30.09,NE,51,0.0,4.0,82,0.01,,,0.15,671.0,meteohub,2013-06-23 19:08:00,
2013-06-23 15:13:00,84.2,77.4,30.09,ESE,105,0.0,2.0,80,0.00,,,0.15,928.0,meteohub,2013-06-23 19:13:00,
2013-06-23 15:18:00,84.9,78.1,30.08,ESE,119,0.0,2.0,80,0.00,,,0.15,907.0,meteohub,2013-06-23 19:18:00,
2013-06-23 15:23:00,84.9,76.5,30.07,ENE,67,0.0,3.0,76,0.00,,,0.15,895.0,meteohub,2013-06-23 19:23:00,
2013-06-23 15:28:00,84.9,76.8,30.07,ENE,58,0.0,3.0,77,0.00,,,0.15,856.0,meteohub,2013-06-23 19:28:00,
2013-06-23 15:33:00,84.7,77.2,30.07,NE,38,3.0,4.0,78,0.00,,,0.15,879.0,meteohub,2013-06-23 19:33:00,
2013-06-23 15:38:00,84.9,76.8,30.07,NE,36,2.0,6.0,77,0.00,,,0.15,881.0,meteohub,2013-06-23 19:38:00,
2013-06-23 15:43:00,84.9,76.5,30.07,NNE,22,4.0,6.0,76,0.00,,,0.15,884.0,meteohub,2013-06-23 19:43:00,
2013-06-23 15:48:00,85.3,76.1,30.07,NNE,15,0.0,7.0,74,0.00,,,0.15,923.0,meteohub,2013-06-23 19:48:00,
2013-06-23 15:53:00,86.0,77.2,30.07,NE,53,0.0,7.0,75,0.00,,,0.15,960.0,meteohub,2013-06-23 19:53:00,
2013-06-23 15:58:00,86.2,77.4,30.07,ESE,119,0.0,5.0,75,0.00,,,0.15,960.0,meteohub,2013-06-23 19:58:00,
2013-06-23 16:03:00,85.8,77.0,30.07,NE,51,0.0,4.0,75,0.00,,,0.15,854.0,meteohub,2013-06-23 20:03:00,
2013-06-23 16:08:00,86.0,74.7,30.07,NE,34,0.0,6.0,69,0.00,,,0.15,860.0,meteohub,2013-06-23 20:08:00,
2013-06-23 16:13:00,86.2,75.7,30.08,ESE,107,0.0,6.0,71,0.00,,,0.15,698.0,meteohub,2013-06-23 20:13:00,
2013-06-23 16:18:00,86.5,76.8,30.08,NNE,26,0.0,4.0,73,0.00,,,0.15,911.0,meteohub,2013-06-23 20:18:00,
2013-06-23 16:23:00,86.5,76.8,30.08,East,92,1.0,4.0,73,0.00,,,0.15,902.0,meteohub,2013-06-23 20:23:00,
2013-06-23 16:28:00,85.8,77.0,30.09,NNE,23,8.0,8.0,75,0.00,,,0.15,243.0,meteohub,2013-06-23 20:28:00,
2013-06-23 16:33:00,84.7,76.3,30.09,ENE,62,0.0,9.0,76,0.00,,,0.15,209.0,meteohub,2013-06-23 20:33:00,
2013-06-23 16:38:00,84.2,75.7,30.09,East,92,3.0,9.0,76,0.00,,,0.15,200.0,meteohub,2013-06-23 20:38:00,
2013-06-23 16:43:00,84.0,76.1,30.09,ENE,62,0.0,9.0,77,0.00,,,0.15,501.0,meteohub,2013-06-23 20:43:00,
2013-06-23 16:48:00,84.4,75.2,30.09,ESE,118,4.0,9.0,74,0.00,,,0.15,234.0,meteohub,2013-06-23 20:48:00,
2013-06-23 16:53:00,84.6,76.1,30.09,East,87,2.0,9.0,76,0.00,,,0.15,290.0,meteohub,2013-06-23 20:53:00,
2013-06-23 16:58:00,84.9,75.7,30.09,East,92,0.0,10.0,74,0.00,,,0.15,360.0,meteohub,2013-06-23 20:58:00,
2013-06-23 17:03:00,84.9,75.7,30.09,ESE,106,3.0,10.0,74,0.00,,,0.15,269.0,meteohub,2013-06-23 21:03:00,
2013-06-23 17:08:00,84.6,75.0,30.08,NE,55,3.0,10.0,73,0.00,,,0.15,151.0,meteohub,2013-06-23 21:08:00,
2013-06-23 17:13:00,84.0,75.2,30.08,ESE,113,1.0,9.0,75,0.00,,,0.15,179.0,meteohub,2013-06-23 21:13:00,
2013-06-23 17:18:00,84.2,75.4,30.08,ENE,76,1.0,9.0,75,0.00,,,0.15,118.0,meteohub,2013-06-23 21:18:00,
2013-06-23 17:23:00,83.5,75.0,30.08,North,11,2.0,7.0,76,0.00,,,0.15,156.0,meteohub,2013-06-23 21:23:00,
2013-06-23 17:28:00,83.7,76.5,30.08,East,99,1.0,9.0,79,0.00,,,0.15,137.0,meteohub,2013-06-23 21:28:00,
2013-06-23 17:33:00,83.7,74.8,30.08,ESE,117,1.0,9.0,75,0.00,,,0.15,142.0,meteohub,2013-06-23 21:33:00,
2013-06-23 17:38:00,83.1,74.8,30.08,ESE,105,0.0,8.0,76,0.00,,,0.15,91.0,meteohub,2013-06-23 21:38:00,
2013-06-23 17:43:00,82.8,74.5,30.07,ESE,123,1.0,9.0,76,0.00,,,0.15,107.0,meteohub,2013-06-23 21:43:00,
2013-06-23 17:48:00,82.6,75.4,30.07,SE,128,1.0,9.0,79,0.00,,,0.15,90.0,meteohub,2013-06-23 21:48:00,
2013-06-23 17:53:00,82.2,75.0,30.07,NE,44,1.0,6.0,79,0.00,,,0.15,90.0,meteohub,2013-06-23 21:53:00,
2013-06-23 17:58:00,81.9,75.0,30.07,ENE,76,0.0,7.0,80,0.00,,,0.15,88.0,meteohub,2013-06-23 21:58:00,
2013-06-23 18:04:00,81.7,75.2,30.07,SE,130,0.0,7.0,81,0.00,,,0.15,86.0,meteohub,2013-06-23 22:04:00,
2013-06-23 18:09:00,81.3,75.4,30.07,SE,131,0.0,5.0,82,0.00,,,0.15,83.0,meteohub,2013-06-23 22:09:00,
2013-06-23 18:14:00,81.1,74.7,30.07,NE,47,0.0,5.0,81,0.00,,,0.15,84.0,meteohub,2013-06-23 22:14:00,
2013-06-23 18:19:00,81.1,75.2,30.07,NE,47,0.0,5.0,82,0.00,,,0.15,86.0,meteohub,2013-06-23 22:19:00,
2013-06-23 18:24:00,80.8,75.2,30.07,NE,46,1.0,5.0,83,0.00,,,0.15,86.0,meteohub,2013-06-23 22:24:00,
2013-06-23 18:29:00,80.6,75.0,30.07,ENE,63,0.0,3.0,83,0.00,,,0.15,84.0,meteohub,2013-06-23 22:29:00,
2013-06-23 18:34:00,80.6,74.7,30.08,ENE,69,0.0,2.0,82,0.00,,,0.15,81.0,meteohub,2013-06-23 22:34:00,
2013-06-23 18:39:00,80.4,74.8,30.08,ENE,71,0.0,2.0,83,0.00,,,0.15,77.0,meteohub,2013-06-23 22:39:00,
2013-06-23 18:44:00,80.4,74.8,30.09,ENE,71,0.0,2.0,83,0.00,,,0.15,74.0,meteohub,2013-06-23 22:44:00,
2013-06-23 18:49:00,80.4,75.2,30.09,ENE,71,0.0,1.0,84,0.00,,,0.15,70.0,meteohub,2013-06-23 22:49:00,
2013-06-23 18:54:00,80.4,75.2,30.09,ENE,71,0.0,1.0,84,0.00,,,0.15,65.0,meteohub,2013-06-23 22:54:00,
2013-06-23 18:59:00,80.2,75.4,30.09,ENE,71,0.0,1.0,85,0.00,,,0.15,62.0,meteohub,2013-06-23 22:59:00,
2013-06-23 19:04:00,80.1,75.2,30.08,ENE,71,0.0,1.0,85,0.00,,,0.15,58.0,meteohub,2013-06-23 23:04:00,
2013-06-23 19:09:00,80.1,75.2,30.08,ENE,71,0.0,1.0,85,0.00,,,0.15,56.0,meteohub,2013-06-23 23:09:00,
2013-06-23 19:14:00,79.9,75.4,30.08,ENE,71,0.0,1.0,86,0.00,,,0.15,54.0,meteohub,2013-06-23 23:14:00,
2013-06-23 19:19:00,79.7,75.2,30.08,ENE,71,0.0,1.0,86,0.00,,,0.15,51.0,meteohub,2013-06-23 23:19:00,
2013-06-23 19:24:00,79.5,75.0,30.08,ENE,76,0.0,1.0,86,0.00,,,0.15,49.0,meteohub,2013-06-23 23:24:00,
2013-06-23 19:29:00,79.5,75.4,30.09,ENE,77,0.0,2.0,87,0.00,,,0.15,46.0,meteohub,2013-06-23 23:29:00,
2013-06-23 19:34:00,79.5,75.4,30.09,ENE,77,0.0,2.0,87,0.00,,,0.15,44.0,meteohub,2013-06-23 23:34:00,
2013-06-23 19:39:00,79.5,75.4,30.10,ENE,77,0.0,2.0,87,0.00,,,0.15,39.0,meteohub,2013-06-23 23:39:00,
2013-06-23 19:44:00,79.5,75.4,30.10,ENE,77,0.0,0.0,87,0.00,,,0.15,35.0,meteohub,2013-06-23 23:44:00,
2013-06-23 19:49:00,79.3,75.2,30.10,ENE,77,0.0,0.0,87,0.00,,,0.15,32.0,meteohub,2013-06-23 23:49:00,
2013-06-23 19:54:00,79.3,75.6,30.10,ENE,76,0.0,0.0,88,0.00,,,0.15,28.0,meteohub,2013-06-23 23:54:00,
2013-06-23 19:59:00,79.2,75.4,30.10,ENE,76,0.0,0.0,88,0.00,,,0.15,23.0,meteohub,2013-06-23 23:59:00,
2013-06-23 20:04:00,79.0,75.2,30.10,ENE,77,0.0,1.0,88,0.00,,,0.15,19.0,meteohub,2013-06-24 00:04:00,
2013-06-23 20:09:00,78.8,75.0,30.10,ENE,77,0.0,1.0,88,0.00,,,0.15,14.0,meteohub,2013-06-24 00:09:00,
2013-06-23 20:14:00,78.6,74.8,30.11,ENE,77,0.0,1.0,88,0.00,,,0.15,11.0,meteohub,2013-06-24 00:14:00,
2013-06-23 20:19:00,78.6,75.0,30.11,ENE,76,0.0,1.0,89,0.00,,,0.15,5.0,meteohub,2013-06-24 00:19:00,
2013-06-23 20:24:00,78.4,74.8,30.10,ENE,77,0.0,1.0,89,0.00,,,0.15,0.0,meteohub,2013-06-24 00:24:00,
2013-06-23 20:29:00,78.3,75.0,30.11,ENE,76,0.0,1.0,90,0.00,,,0.15,0.0,meteohub,2013-06-24 00:29:00,
2013-06-23 20:34:00,78.1,74.8,30.11,ENE,77,0.0,1.0,90,0.00,,,0.15,0.0,meteohub,2013-06-24 00:34:00,
2013-06-23 20:39:00,78.1,74.8,30.11,ENE,77,0.0,1.0,90,0.00,,,0.15,0.0,meteohub,2013-06-24 00:39:00,
2013-06-23 20:44:00,78.1,74.8,30.11,ENE,77,0.0,0.0,90,0.00,,,0.15,0.0,meteohub,2013-06-24 00:44:00,
2013-06-23 20:49:00,78.1,74.8,30.11,ENE,76,0.0,1.0,90,0.00,,,0.15,0.0,meteohub,2013-06-24 00:49:00,
2013-06-23 20:54:00,77.9,74.5,30.11,ENE,77,0.0,1.0,89,0.00,,,0.15,0.0,meteohub,2013-06-24 00:54:00,
2013-06-23 20:59:00,77.9,74.5,30.11,ENE,76,0.0,1.0,89,0.00,,,0.15,0.0,meteohub,2013-06-24 00:59:00,
2013-06-23 21:04:00,77.9,74.7,30.11,ENE,77,0.0,1.0,90,0.00,,,0.15,0.0,meteohub,2013-06-24 01:04:00,
2013-06-23 21:09:00,77.9,74.7,30.11,ENE,76,0.0,1.0,90,0.00,,,0.15,0.0,meteohub,2013-06-24 01:09:00,
2013-06-23 21:14:00,77.9,74.7,30.11,ENE,76,0.0,2.0,90,0.00,,,0.15,0.0,meteohub,2013-06-24 01:14:00,
2013-06-23 21:19:00,77.9,74.7,30.10,ENE,77,0.0,2.0,90,0.00,,,0.15,0.0,meteohub,2013-06-24 01:19:00,
2013-06-23 21:24:00,77.7,74.5,30.11,ENE,77,0.0,2.0,90,0.00,,,0.15,0.0,meteohub,2013-06-24 01:24:00,
2013-06-23 21:29:00,77.7,74.5,30.10,ENE,76,1.0,0.0,90,0.00,,,0.15,0.0,meteohub,2013-06-24 01:29:00,
2013-06-23 21:34:00,77.7,74.5,30.10,ENE,76,0.0,1.0,90,0.00,,,0.15,0.0,meteohub,2013-06-24 01:34:00,
2013-06-23 21:39:00,77.9,74.7,30.10,ENE,77,0.0,1.0,90,0.00,,,0.15,0.0,meteohub,2013-06-24 01:39:00,
2013-06-23 21:44:00,78.1,74.5,30.10,ENE,76,0.0,1.0,89,0.00,,,0.15,0.0,meteohub,2013-06-24 01:44:00,
2013-06-23 21:49:00,78.1,74.8,30.11,ENE,77,0.0,1.0,90,0.00,,,0.15,0.0,meteohub,2013-06-24 01:49:00,
2013-06-23 21:54:00,78.1,75.2,30.10,ENE,77,0.0,1.0,91,0.00,,,0.15,0.0,meteohub,2013-06-24 01:54:00,
2013-06-23 21:59:00,77.7,74.8,30.10,ENE,77,0.0,0.0,91,0.00,,,0.15,0.0,meteohub,2013-06-24 01:59:00,
2013-06-23 22:04:00,77.4,74.5,30.10,ENE,77,0.0,0.0,91,0.00,,,0.15,0.0,meteohub,2013-06-24 02:04:00,
2013-06-23 22:09:00,77.2,74.3,30.11,ENE,76,0.0,0.0,91,0.00,,,0.15,0.0,meteohub,2013-06-24 02:09:00,
2013-06-23 22:14:00,76.8,74.3,30.11,ENE,76,0.0,0.0,92,0.00,,,0.15,0.0,meteohub,2013-06-24 02:14:00,
2013-06-23 22:19:00,76.8,74.3,30.11,ENE,76,0.0,0.0,92,0.00,,,0.15,0.0,meteohub,2013-06-24 02:19:00,
2013-06-23 22:24:00,76.8,74.3,30.11,ENE,77,0.0,0.0,92,0.00,,,0.15,0.0,meteohub,2013-06-24 02:24:00,
2013-06-23 22:29:00,76.8,74.3,30.12,ENE,77,0.0,0.0,92,0.00,,,0.15,0.0,meteohub,2013-06-24 02:29:00,
2013-06-23 22:34:00,76.8,74.3,30.11,ENE,76,0.0,0.0,92,0.00,,,0.15,0.0,meteohub,2013-06-24 02:34:00,
2013-06-23 22:40:00,76.6,74.1,30.12,ENE,77,0.0,0.0,92,0.00,,,0.15,0.0,meteohub,2013-06-24 02:40:00,
2013-06-23 22:45:00,76.6,74.5,30.12,ENE,76,0.0,0.0,93,0.00,,,0.15,0.0,meteohub,2013-06-24 02:45:00,
2013-06-23 22:50:00,76.6,74.5,30.12,ENE,77,0.0,0.0,93,0.00,,,0.15,0.0,meteohub,2013-06-24 02:50:00,
2013-06-23 22:55:00,76.8,74.7,30.12,ENE,76,0.0,0.0,93,0.00,,,0.15,0.0,meteohub,2013-06-24 02:55:00,
2013-06-23 23:00:00,76.8,74.7,30.12,ENE,76,0.0,1.0,93,0.00,,,0.15,0.0,meteohub,2013-06-24 03:00:00,
2013-06-23 23:05:00,77.2,75.0,30.12,ESE,108,0.0,1.0,93,0.00,,,0.15,0.0,meteohub,2013-06-24 03:05:00,
2013-06-23 23:10:00,77.4,75.2,30.12,ESE,108,0.0,3.0,93,0.00,,,0.15,0.0,meteohub,2013-06-24 03:10:00,
2013-06-23 23:15:00,77.7,75.6,30.12,ESE,109,0.0,3.0,93,0.00,,,0.15,0.0,meteohub,2013-06-24 03:15:00,
2013-06-23 23:20:00,77.7,75.2,30.12,ESE,109,0.0,3.0,92,0.00,,,0.15,0.0,meteohub,2013-06-24 03:20:00,
2013-06-23 23:25:00,77.7,75.2,30.12,ESE,109,0.0,2.0,92,0.00,,,0.15,0.0,meteohub,2013-06-24 03:25:00,
2013-06-23 23:30:00,77.7,75.2,30.12,ESE,109,0.0,2.0,92,0.00,,,0.15,0.0,meteohub,2013-06-24 03:30:00,
2013-06-23 23:35:00,77.7,75.2,30.13,ESE,109,0.0,0.0,92,0.00,,,0.15,0.0,meteohub,2013-06-24 03:35:00,
2013-06-23 23:40:00,77.5,75.4,30.13,ESE,109,0.0,0.0,93,0.00,,,0.15,0.0,meteohub,2013-06-24 03:40:00,
2013-06-23 23:45:00,77.5,75.4,30.13,ESE,109,0.0,0.0,93,0.00,,,0.15,0.0,meteohub,2013-06-24 03:45:00,
2013-06-23 23:50:00,77.5,75.4,30.13,ESE,109,0.0,0.0,93,0.00,,,0.15,0.0,meteohub,2013-06-24 03:50:00,
2013-06-23 23:55:00,77.5,75.7,30.13,ESE,109,0.0,0.0,94,0.00,,,0.15,0.0,meteohub,2013-06-24 03:55:00,